sensor_id;sensor_type;location;lat;lon;timestamp;pressure;altitude;pressure_sealevel;temperature
18161;BMP280;9205;52.032;4.314;2023-05-29T00:00:21;102440.88;;;14.23
18161;BMP280;9205;52.032;4.314;2023-05-29T00:02:50;102449.34;;;14.28
18161;BMP280;9205;52.032;4.314;2023-05-29T00:05:18;102446.81;;;14.28
18161;BMP280;9205;52.032;4.314;2023-05-29T00:07:45;102442.44;;;14.35
18161;BMP280;9205;52.032;4.314;2023-05-29T00:10:14;102441.69;;;14.27
18161;BMP280;9205;52.032;4.314;2023-05-29T00:12:43;102450.09;;;14.35
18161;BMP280;9205;52.032;4.314;2023-05-29T00:15:10;102441.63;;;14.33
18161;BMP280;9205;52.032;4.314;2023-05-29T00:17:38;102439.88;;;14.35
18161;BMP280;9205;52.032;4.314;2023-05-29T00:20:07;102444.19;;;14.33
18161;BMP280;9205;52.032;4.314;2023-05-29T00:22:36;102442.50;;;14.30
18161;BMP280;9205;52.032;4.314;2023-05-29T00:25:05;102443.44;;;14.25
18161;BMP280;9205;52.032;4.314;2023-05-29T00:27:32;102440.88;;;14.25
18161;BMP280;9205;52.032;4.314;2023-05-29T00:30:02;102451.97;;;14.24
18161;BMP280;9205;52.032;4.314;2023-05-29T00:32:29;102451.97;;;14.21
18161;BMP280;9205;52.032;4.314;2023-05-29T00:34:56;102450.28;;;14.20
18161;BMP280;9205;52.032;4.314;2023-05-29T00:37:24;102450.41;;;14.08
18161;BMP280;9205;52.032;4.314;2023-05-29T00:39:51;102464.97;;;13.97
18161;BMP280;9205;52.032;4.314;2023-05-29T00:42:18;102469.16;;;14.04
18161;BMP280;9205;52.032;4.314;2023-05-29T00:44:46;102472.69;;;13.94
18161;BMP280;9205;52.032;4.314;2023-05-29T00:47:15;102476.97;;;13.92
18161;BMP280;9205;52.032;4.314;2023-05-29T00:49:43;102472.81;;;13.82
18161;BMP280;9205;52.032;4.314;2023-05-29T00:52:11;102474.56;;;13.77
18161;BMP280;9205;52.032;4.314;2023-05-29T00:54:42;102484.72;;;13.80
18161;BMP280;9205;52.032;4.314;2023-05-29T00:57:10;102482.22;;;13.77
18161;BMP280;9205;52.032;4.314;2023-05-29T00:59:37;102485.59;;;13.81
18161;BMP280;9205;52.032;4.314;2023-05-29T01:02:06;102480.50;;;13.79
18161;BMP280;9205;52.032;4.314;2023-05-29T01:04:36;102487.28;;;13.80
18161;BMP280;9205;52.032;4.314;2023-05-29T01:07:04;102495.03;;;13.76
18161;BMP280;9205;52.032;4.314;2023-05-29T01:09:32;102500.25;;;13.62
18161;BMP280;9205;52.032;4.314;2023-05-29T01:12:19;102494.22;;;13.66
18161;BMP280;9205;52.032;4.314;2023-05-29T01:15:04;102498.44;;;13.72
18161;BMP280;9205;52.032;4.314;2023-05-29T01:17:50;102495.88;;;13.75
18161;BMP280;9205;52.032;4.314;2023-05-29T01:20:31;102497.63;;;13.65
18161;BMP280;9205;52.032;4.314;2023-05-29T01:23:26;102503.66;;;13.61
18161;BMP280;9205;52.032;4.314;2023-05-29T01:26:11;102489.19;;;13.57
18161;BMP280;9205;52.032;4.314;2023-05-29T01:28:47;102490.03;;;13.59
18161;BMP280;9205;52.032;4.314;2023-05-29T01:31:21;102488.38;;;13.55
18161;BMP280;9205;52.032;4.314;2023-05-29T01:33:54;102492.56;;;13.62
18161;BMP280;9205;52.032;4.314;2023-05-29T01:36:22;102488.34;;;13.57
18161;BMP280;9205;52.032;4.314;2023-05-29T01:38:52;102487.47;;;13.61
18161;BMP280;9205;52.032;4.314;2023-05-29T01:41:21;102492.63;;;13.55
18161;BMP280;9205;52.032;4.314;2023-05-29T01:43:52;102493.47;;;13.54
18161;BMP280;9205;52.032;4.314;2023-05-29T01:46:21;102498.63;;;13.49
18161;BMP280;9205;52.032;4.314;2023-05-29T01:48:49;102508.81;;;13.52
18161;BMP280;9205;52.032;4.314;2023-05-29T01:51:16;102498.59;;;13.55
18161;BMP280;9205;52.032;4.314;2023-05-29T01:53:45;102505.38;;;13.55
18161;BMP280;9205;52.032;4.314;2023-05-29T01:56:13;102512.22;;;13.51
18161;BMP280;9205;52.032;4.314;2023-05-29T01:58:41;102504.59;;;13.48
18161;BMP280;9205;52.032;4.314;2023-05-29T02:01:11;102508.91;;;13.45
18161;BMP280;9205;52.032;4.314;2023-05-29T02:03:38;102514.84;;;13.45
18161;BMP280;9205;52.032;4.314;2023-05-29T02:06:06;102515.66;;;13.46
18161;BMP280;9205;52.032;4.314;2023-05-29T02:08:33;102516.50;;;13.49
18161;BMP280;9205;52.032;4.314;2023-05-29T02:11:00;102509.69;;;13.47
18161;BMP280;9205;52.032;4.314;2023-05-29T02:13:28;102509.72;;;13.45
18161;BMP280;9205;52.032;4.314;2023-05-29T02:15:55;102517.38;;;13.45
18161;BMP280;9205;52.032;4.314;2023-05-29T02:18:25;102517.47;;;13.33
18161;BMP280;9205;52.032;4.314;2023-05-29T02:20:52;102520.03;;;13.30
18161;BMP280;9205;52.032;4.314;2023-05-29T02:23:22;102511.56;;;13.26
18161;BMP280;9205;52.032;4.314;2023-05-29T02:25:51;102514.13;;;13.23
18161;BMP280;9205;52.032;4.314;2023-05-29T02:28:18;102514.13;;;13.24
18161;BMP280;9205;52.032;4.314;2023-05-29T02:30:45;102509.00;;;13.27
18161;BMP280;9205;52.032;4.314;2023-05-29T02:33:12;102516.69;;;13.26
18161;BMP280;9205;52.032;4.314;2023-05-29T02:35:41;102514.94;;;13.30
18161;BMP280;9205;52.032;4.314;2023-05-29T02:38:08;102508.97;;;13.30
18161;BMP280;9205;52.032;4.314;2023-05-29T02:40:35;102513.22;;;13.31
18161;BMP280;9205;52.032;4.314;2023-05-29T02:43:03;102506.47;;;13.26
18161;BMP280;9205;52.032;4.314;2023-05-29T02:45:30;102508.16;;;13.22
18161;BMP280;9205;52.032;4.314;2023-05-29T02:47:59;102505.63;;;13.24
18161;BMP280;9205;52.032;4.314;2023-05-29T02:50:26;102509.03;;;13.20
18161;BMP280;9205;52.032;4.314;2023-05-29T02:52:55;102508.19;;;13.21
18161;BMP280;9205;52.032;4.314;2023-05-29T02:55:23;102519.28;;;13.18
18161;BMP280;9205;52.032;4.314;2023-05-29T02:57:50;102509.06;;;13.18
18161;BMP280;9205;52.032;4.314;2023-05-29T03:00:20;102507.38;;;13.16
18161;BMP280;9205;52.032;4.314;2023-05-29T03:02:48;102512.47;;;13.16
18161;BMP280;9205;52.032;4.314;2023-05-29T03:05:15;102507.41;;;13.11
18161;BMP280;9205;52.032;4.314;2023-05-29T03:07:43;102520.16;;;13.14
18161;BMP280;9205;52.032;4.314;2023-05-29T03:10:12;102512.53;;;13.07
18161;BMP280;9205;52.032;4.314;2023-05-29T03:12:43;102526.16;;;13.06
18161;BMP280;9205;52.032;4.314;2023-05-29T03:15:10;102525.31;;;13.05
18161;BMP280;9205;52.032;4.314;2023-05-29T03:17:38;102528.69;;;13.09
18161;BMP280;9205;52.032;4.314;2023-05-29T03:20:11;102515.88;;;13.12
18161;BMP280;9205;52.032;4.314;2023-05-29T03:22:39;102517.59;;;13.16
18161;BMP280;9205;52.032;4.314;2023-05-29T03:25:08;102509.16;;;13.06
18161;BMP280;9205;52.032;4.314;2023-05-29T03:27:38;102507.44;;;13.05
18161;BMP280;9205;52.032;4.314;2023-05-29T03:30:11;102508.28;;;13.09
18161;BMP280;9205;52.032;4.314;2023-05-29T03:32:38;102493.88;;;12.99
18161;BMP280;9205;52.032;4.314;2023-05-29T03:35:07;102504.97;;;12.95
18161;BMP280;9205;52.032;4.314;2023-05-29T03:37:37;102507.47;;;12.98
18161;BMP280;9205;52.032;4.314;2023-05-29T03:40:06;102514.28;;;12.97
18161;BMP280;9205;52.032;4.314;2023-05-29T03:42:36;102517.72;;;12.95
18161;BMP280;9205;52.032;4.314;2023-05-29T03:45:04;102518.53;;;12.98
18161;BMP280;9205;52.032;4.314;2023-05-29T03:47:34;102514.28;;;12.99
18161;BMP280;9205;52.032;4.314;2023-05-29T03:50:03;102530.47;;;12.95
18161;BMP280;9205;52.032;4.314;2023-05-29T03:52:34;102525.34;;;12.96
18161;BMP280;9205;52.032;4.314;2023-05-29T03:55:02;102528.72;;;13.01
18161;BMP280;9205;52.032;4.314;2023-05-29T03:57:29;102533.00;;;12.98
18161;BMP280;9205;52.032;4.314;2023-05-29T03:59:57;102531.31;;;12.91
18161;BMP280;9205;52.032;4.314;2023-05-29T04:02:25;102533.03;;;12.83
18161;BMP280;9205;52.032;4.314;2023-05-29T04:04:52;102538.13;;;12.87
18161;BMP280;9205;52.032;4.314;2023-05-29T04:07:21;102537.25;;;12.91
18161;BMP280;9205;52.032;4.314;2023-05-29T04:09:48;102535.59;;;12.90
18161;BMP280;9205;52.032;4.314;2023-05-29T04:12:16;102539.81;;;12.87
18161;BMP280;9205;52.032;4.314;2023-05-29T04:14:43;102531.34;;;12.79
18161;BMP280;9205;52.032;4.314;2023-05-29T04:17:11;102547.50;;;12.82
18161;BMP280;9205;52.032;4.314;2023-05-29T04:19:39;102544.06;;;12.86
18161;BMP280;9205;52.032;4.314;2023-05-29T04:22:06;102543.22;;;12.92
18161;BMP280;9205;52.032;4.314;2023-05-29T04:24:34;102540.69;;;12.92
18161;BMP280;9205;52.032;4.314;2023-05-29T04:27:01;102549.16;;;12.97
18161;BMP280;9205;52.032;4.314;2023-05-29T04:29:30;102539.81;;;12.87
18161;BMP280;9205;52.032;4.314;2023-05-29T04:31:58;102549.19;;;12.82
18161;BMP280;9205;52.032;4.314;2023-05-29T04:34:30;102550.91;;;12.78
18161;BMP280;9205;52.032;4.314;2023-05-29T04:36:58;102543.22;;;12.89
18161;BMP280;9205;52.032;4.314;2023-05-29T04:39:25;102556.84;;;12.91
18161;BMP280;9205;52.032;4.314;2023-05-29T04:41:53;102553.41;;;12.98
18161;BMP280;9205;52.032;4.314;2023-05-29T04:44:23;102562.72;;;13.00
18161;BMP280;9205;52.032;4.314;2023-05-29T04:46:53;102561.00;;;13.04
18161;BMP280;9205;52.032;4.314;2023-05-29T04:49:20;102565.28;;;13.03
18161;BMP280;9205;52.032;4.314;2023-05-29T04:51:49;102565.31;;;13.02
18161;BMP280;9205;52.032;4.314;2023-05-29T04:54:18;102568.69;;;13.05
18161;BMP280;9205;52.032;4.314;2023-05-29T04:56:46;102578.06;;;12.97
18161;BMP280;9205;52.032;4.314;2023-05-29T04:59:14;102575.47;;;13.05
18161;BMP280;9205;52.032;4.314;2023-05-29T05:01:41;102566.19;;;12.95
18161;BMP280;9205;52.032;4.314;2023-05-29T05:04:10;102574.69;;;12.92
18161;BMP280;9205;52.032;4.314;2023-05-29T05:06:37;102572.09;;;12.97
18161;BMP280;9205;52.032;4.314;2023-05-29T05:09:07;102577.19;;;13.04
18161;BMP280;9205;52.032;4.314;2023-05-29T05:11:34;102581.44;;;13.05
18161;BMP280;9205;52.032;4.314;2023-05-29T05:14:02;102576.31;;;13.10
18161;BMP280;9205;52.032;4.314;2023-05-29T05:16:30;102572.88;;;13.14
18161;BMP280;9205;52.032;4.314;2023-05-29T05:18:59;102582.25;;;13.13
18161;BMP280;9205;52.032;4.314;2023-05-29T05:21:26;102582.19;;;13.22
18161;BMP280;9205;52.032;4.314;2023-05-29T05:23:57;102594.06;;;13.27
18161;BMP280;9205;52.032;4.314;2023-05-29T05:26:27;102587.28;;;13.28
18161;BMP280;9205;52.032;4.314;2023-05-29T05:28:55;102580.47;;;13.31
18161;BMP280;9205;52.032;4.314;2023-05-29T05:31:24;102581.28;;;13.32
18161;BMP280;9205;52.032;4.314;2023-05-29T05:33:52;102580.41;;;13.34
18161;BMP280;9205;52.032;4.314;2023-05-29T05:36:19;102583.84;;;13.33
18161;BMP280;9205;52.032;4.314;2023-05-29T05:38:53;102590.63;;;13.40
18161;BMP280;9205;52.032;4.314;2023-05-29T05:41:21;102592.31;;;13.43
18161;BMP280;9205;52.032;4.314;2023-05-29T05:43:51;102582.91;;;13.48
18161;BMP280;9205;52.032;4.314;2023-05-29T05:46:26;102588.00;;;13.51
18161;BMP280;9205;52.032;4.314;2023-05-29T05:48:53;102587.13;;;13.50
18161;BMP280;9205;52.032;4.314;2023-05-29T05:51:23;102595.63;;;13.57
18161;BMP280;9205;52.032;4.314;2023-05-29T05:53:51;102587.91;;;13.64
18161;BMP280;9205;52.032;4.314;2023-05-29T05:56:19;102601.50;;;13.68
18161;BMP280;9205;52.032;4.314;2023-05-29T05:58:46;102595.53;;;13.70
18161;BMP280;9205;52.032;4.314;2023-05-29T06:01:19;102598.88;;;13.78
18161;BMP280;9205;52.032;4.314;2023-05-29T06:03:49;102598.00;;;13.78
18161;BMP280;9205;52.032;4.314;2023-05-29T06:06:17;102602.31;;;13.73
18161;BMP280;9205;52.032;4.314;2023-05-29T06:08:45;102592.03;;;13.80
18161;BMP280;9205;52.032;4.314;2023-05-29T06:11:13;102599.72;;;13.79
18161;BMP280;9205;52.032;4.314;2023-05-29T06:13:44;102601.44;;;13.75
18161;BMP280;9205;52.032;4.314;2023-05-29T06:16:23;102596.34;;;13.74
18161;BMP280;9205;52.032;4.314;2023-05-29T06:18:51;102603.16;;;13.76
18161;BMP280;9205;52.032;4.314;2023-05-29T06:21:18;102603.94;;;13.84
18161;BMP280;9205;52.032;4.314;2023-05-29T06:23:51;102597.94;;;13.90
18161;BMP280;9205;52.032;4.314;2023-05-29T06:26:20;102605.59;;;13.91
18161;BMP280;9205;52.032;4.314;2023-05-29T06:28:49;102601.31;;;13.92
18161;BMP280;9205;52.032;4.314;2023-05-29T06:31:16;102595.34;;;13.94
18161;BMP280;9205;52.032;4.314;2023-05-29T06:33:46;102604.63;;;14.04
18161;BMP280;9205;52.032;4.314;2023-05-29T06:36:14;102603.75;;;14.08
18161;BMP280;9205;52.032;4.314;2023-05-29T06:38:46;102598.63;;;14.11
18161;BMP280;9205;52.032;4.314;2023-05-29T06:41:14;102604.59;;;14.13
18161;BMP280;9205;52.032;4.314;2023-05-29T06:43:42;102609.72;;;14.11
18161;BMP280;9205;52.032;4.314;2023-05-29T06:46:10;102602.03;;;14.13
18161;BMP280;9205;52.032;4.314;2023-05-29T06:48:38;102600.28;;;14.19
18161;BMP280;9205;52.032;4.314;2023-05-29T06:51:06;102605.31;;;14.27
18161;BMP280;9205;52.032;4.314;2023-05-29T06:53:41;102597.63;;;14.30
18161;BMP280;9205;52.032;4.314;2023-05-29T06:56:11;102607.75;;;14.39
18161;BMP280;9205;52.032;4.314;2023-05-29T06:58:38;102618.81;;;14.39
18161;BMP280;9205;52.032;4.314;2023-05-29T07:01:06;102618.00;;;14.36
18161;BMP280;9205;52.032;4.314;2023-05-29T07:03:35;102611.19;;;14.36
18161;BMP280;9205;52.032;4.314;2023-05-29T07:06:05;102617.09;;;14.43
18161;BMP280;9205;52.032;4.314;2023-05-29T07:08:33;102613.59;;;14.50
18161;BMP280;9205;52.032;4.314;2023-05-29T07:11:01;102611.03;;;14.53
18161;BMP280;9205;52.032;4.314;2023-05-29T07:13:29;102610.13;;;14.55
18161;BMP280;9205;52.032;4.314;2023-05-29T07:15:56;102614.34;;;14.62
18161;BMP280;9205;52.032;4.314;2023-05-29T07:18:31;102616.00;;;14.65
18161;BMP280;9205;52.032;4.314;2023-05-29T07:21:00;102617.78;;;14.58
18161;BMP280;9205;52.032;4.314;2023-05-29T07:23:30;102627.09;;;14.65
18161;BMP280;9205;52.032;4.314;2023-05-29T07:25:58;102627.00;;;14.73
18161;BMP280;9205;52.032;4.314;2023-05-29T07:28:28;102628.69;;;14.74
18161;BMP280;9205;52.032;4.314;2023-05-29T07:30:56;102627.88;;;14.73
18161;BMP280;9205;52.032;4.314;2023-05-29T07:33:24;102635.53;;;14.76
18161;BMP280;9205;52.032;4.314;2023-05-29T07:35:54;102633.69;;;14.84
18161;BMP280;9205;52.032;4.314;2023-05-29T07:38:21;102627.56;;;14.98
18161;BMP280;9205;52.032;4.314;2023-05-29T07:40:50;102635.13;;;15.10
18161;BMP280;9205;52.032;4.314;2023-05-29T07:43:37;102634.34;;;15.04
18161;BMP280;9205;52.032;4.314;2023-05-29T07:46:07;102626.59;;;15.08
18161;BMP280;9205;52.032;4.314;2023-05-29T07:48:38;102631.66;;;15.14
18161;BMP280;9205;52.032;4.314;2023-05-29T07:51:05;102627.31;;;15.19
18161;BMP280;9205;52.032;4.314;2023-05-29T07:53:37;102625.50;;;15.30
18161;BMP280;9205;52.032;4.314;2023-05-29T07:56:06;102632.28;;;15.33
18161;BMP280;9205;52.032;4.314;2023-05-29T07:58:33;102629.78;;;15.28
18161;BMP280;9205;52.032;4.314;2023-05-29T08:01:00;102637.31;;;15.39
18161;BMP280;9205;52.032;4.314;2023-05-29T08:03:28;102634.69;;;15.46
18161;BMP280;9205;52.032;4.314;2023-05-29T08:06:19;102644.25;;;15.32
18161;BMP280;9205;52.032;4.314;2023-05-29T08:08:47;102640.84;;;15.33
18161;BMP280;9205;52.032;4.314;2023-05-29T08:11:16;102644.16;;;15.40
18161;BMP280;9205;52.032;4.314;2023-05-29T08:13:44;102651.84;;;15.41
18161;BMP280;9205;52.032;4.314;2023-05-29T08:16:11;102639.91;;;15.37
18161;BMP280;9205;52.032;4.314;2023-05-29T08:18:40;102641.59;;;15.41
18161;BMP280;9205;52.032;4.314;2023-05-29T08:21:07;102648.31;;;15.48
18161;BMP280;9205;52.032;4.314;2023-05-29T08:23:36;102638.84;;;15.53
18161;BMP280;9205;52.032;4.314;2023-05-29T08:26:03;102639.78;;;15.49
18161;BMP280;9205;52.032;4.314;2023-05-29T08:28:31;102644.91;;;15.49
18161;BMP280;9205;52.032;4.314;2023-05-29T08:30:59;102649.66;;;15.73
18161;BMP280;9205;52.032;4.314;2023-05-29T08:33:26;102634.94;;;15.87
18161;BMP280;9205;52.032;4.314;2023-05-29T08:35:53;102647.75;;;15.85
18161;BMP280;9205;52.032;4.314;2023-05-29T08:38:20;102650.25;;;15.91
18161;BMP280;9205;52.032;4.314;2023-05-29T08:40:48;102639.13;;;15.91
18161;BMP280;9205;52.032;4.314;2023-05-29T08:43:21;102645.31;;;15.76
18161;BMP280;9205;52.032;4.314;2023-05-29T08:45:54;102647.81;;;15.81
18161;BMP280;9205;52.032;4.314;2023-05-29T08:48:24;102645.16;;;15.88
18161;BMP280;9205;52.032;4.314;2023-05-29T08:50:54;102649.53;;;15.83
18161;BMP280;9205;52.032;4.314;2023-05-29T08:53:24;102651.13;;;15.89
18161;BMP280;9205;52.032;4.314;2023-05-29T08:55:52;102658.59;;;16.02
18161;BMP280;9205;52.032;4.314;2023-05-29T08:58:22;102649.84;;;16.17
18161;BMP280;9205;52.032;4.314;2023-05-29T09:00:50;102654.00;;;16.24
18161;BMP280;9205;52.032;4.314;2023-05-29T09:03:18;102648.00;;;16.25
18161;BMP280;9205;52.032;4.314;2023-05-29T09:05:46;102654.00;;;16.24
18161;BMP280;9205;52.032;4.314;2023-05-29T09:08:13;102652.22;;;16.29
18161;BMP280;9205;52.032;4.314;2023-05-29T09:10:41;102653.81;;;16.37
18161;BMP280;9205;52.032;4.314;2023-05-29T09:13:09;102655.38;;;16.43
18161;BMP280;9205;52.032;4.314;2023-05-29T09:15:37;102649.31;;;16.48
18161;BMP280;9205;52.032;4.314;2023-05-29T09:18:07;102646.75;;;16.49
18161;BMP280;9205;52.032;4.314;2023-05-29T09:20:35;102642.44;;;16.50
18161;BMP280;9205;52.032;4.314;2023-05-29T09:23:07;102647.41;;;16.59
18161;BMP280;9205;52.032;4.314;2023-05-29T09:25:39;102646.47;;;16.64
18161;BMP280;9205;52.032;4.314;2023-05-29T09:28:08;102653.50;;;16.53
18161;BMP280;9205;52.032;4.314;2023-05-29T09:30:41;102665.22;;;16.68
18161;BMP280;9205;52.032;4.314;2023-05-29T09:33:13;102655.53;;;16.82
18161;BMP280;9205;52.032;4.314;2023-05-29T09:35:42;102664.97;;;16.80
18161;BMP280;9205;52.032;4.314;2023-05-29T09:38:12;102652.16;;;16.80
18161;BMP280;9205;52.032;4.314;2023-05-29T09:40:40;102652.03;;;16.86
18161;BMP280;9205;52.032;4.314;2023-05-29T09:43:11;102647.69;;;16.89
18161;BMP280;9205;52.032;4.314;2023-05-29T09:45:39;102648.38;;;16.97
18161;BMP280;9205;52.032;4.314;2023-05-29T09:48:13;102647.44;;;17.01
18161;BMP280;9205;52.032;4.314;2023-05-29T09:50:40;102644.00;;;17.02
18161;BMP280;9205;52.032;4.314;2023-05-29T09:53:17;102634.53;;;17.06
18161;BMP280;9205;52.032;4.314;2023-05-29T09:55:46;102626.91;;;17.01
18161;BMP280;9205;52.032;4.314;2023-05-29T09:58:15;102629.31;;;17.10
18161;BMP280;9205;52.032;4.314;2023-05-29T10:00:43;102623.06;;;17.20
18161;BMP280;9205;52.032;4.314;2023-05-29T10:03:12;102625.53;;;17.27
18161;BMP280;9205;52.032;4.314;2023-05-29T10:05:40;102632.16;;;17.37
18161;BMP280;9205;52.032;4.314;2023-05-29T10:08:12;102627.91;;;17.35
18161;BMP280;9205;52.032;4.314;2023-05-29T10:10:43;102625.34;;;17.36
18161;BMP280;9205;52.032;4.314;2023-05-29T10:13:12;102622.69;;;17.39
18161;BMP280;9205;52.032;4.314;2023-05-29T10:15:43;102618.94;;;17.54
18161;BMP280;9205;52.032;4.314;2023-05-29T10:18:20;102620.28;;;17.70
18161;BMP280;9205;52.032;4.314;2023-05-29T10:20:50;102614.72;;;17.88
18161;BMP280;9205;52.032;4.314;2023-05-29T10:23:22;102625.44;;;18.04
18161;BMP280;9205;52.032;4.314;2023-05-29T10:25:52;102628.47;;;17.87
18161;BMP280;9205;52.032;4.314;2023-05-29T10:28:21;102622.47;;;17.86
18161;BMP280;9205;52.032;4.314;2023-05-29T10:30:55;102630.00;;;17.94
18161;BMP280;9205;52.032;4.314;2023-05-29T10:33:47;102624.56;;;18.05
18161;BMP280;9205;52.032;4.314;2023-05-29T10:36:20;102627.06;;;18.08
18161;BMP280;9205;52.032;4.314;2023-05-29T10:38:51;102632.47;;;17.98
18161;BMP280;9205;52.032;4.314;2023-05-29T10:41:34;102622.63;;;18.13
18161;BMP280;9205;52.032;4.314;2023-05-29T10:44:39;102617.72;;;18.04
18161;BMP280;9205;52.032;4.314;2023-05-29T10:47:07;102613.97;;;18.17
18161;BMP280;9205;52.032;4.314;2023-05-29T10:49:38;102613.13;;;18.50
18161;BMP280;9205;52.032;4.314;2023-05-29T10:52:06;102603.69;;;18.81
18161;BMP280;9205;52.032;4.314;2023-05-29T10:54:53;102596.44;;;20.04
18161;BMP280;9205;52.032;4.314;2023-05-29T10:57:24;102589.91;;;20.92
18161;BMP280;9205;52.032;4.314;2023-05-29T11:00:16;102598.03;;;21.48
18161;BMP280;9205;52.032;4.314;2023-05-29T11:02:44;102593.00;;;21.67
18161;BMP280;9205;52.032;4.314;2023-05-29T11:05:21;102592.66;;;21.76
18161;BMP280;9205;52.032;4.314;2023-05-29T11:07:56;102607.31;;;21.75
18161;BMP280;9205;52.032;4.314;2023-05-29T11:10:44;102607.63;;;21.68
18161;BMP280;9205;52.032;4.314;2023-05-29T11:13:24;102589.63;;;21.65
18161;BMP280;9205;52.032;4.314;2023-05-29T11:16:10;102598.28;;;21.85
18161;BMP280;9205;52.032;4.314;2023-05-29T11:18:42;102597.28;;;21.89
18161;BMP280;9205;52.032;4.314;2023-05-29T11:21:29;102590.09;;;21.53
18161;BMP280;9205;52.032;4.314;2023-05-29T11:23:59;102604.25;;;21.22
18161;BMP280;9205;52.032;4.314;2023-05-29T11:26:30;102601.81;;;20.96
18161;BMP280;9205;52.032;4.314;2023-05-29T11:29:00;102598.72;;;20.62
18161;BMP280;9205;52.032;4.314;2023-05-29T11:31:31;102608.06;;;20.42
18161;BMP280;9205;52.032;4.314;2023-05-29T11:34:02;102609.91;;;20.38
18161;BMP280;9205;52.032;4.314;2023-05-29T11:36:33;102610.19;;;20.31
18161;BMP280;9205;52.032;4.314;2023-05-29T11:39:01;102611.09;;;20.28
18161;BMP280;9205;52.032;4.314;2023-05-29T11:41:30;102603.22;;;20.33
18161;BMP280;9205;52.032;4.314;2023-05-29T11:43:58;102613.28;;;20.40
18161;BMP280;9205;52.032;4.314;2023-05-29T11:46:27;102607.47;;;20.35
18161;BMP280;9205;52.032;4.314;2023-05-29T11:48:57;102594.78;;;20.28
18161;BMP280;9205;52.032;4.314;2023-05-29T11:51:24;102597.97;;;20.36
18161;BMP280;9205;52.032;4.314;2023-05-29T11:53:53;102599.00;;;20.54
18161;BMP280;9205;52.032;4.314;2023-05-29T11:56:24;102613.78;;;20.74
18161;BMP280;9205;52.032;4.314;2023-05-29T11:58:52;102594.66;;;20.79
18161;BMP280;9205;52.032;4.314;2023-05-29T12:01:23;102602.75;;;20.93
18161;BMP280;9205;52.032;4.314;2023-05-29T12:03:52;102605.13;;;20.99
18161;BMP280;9205;52.032;4.314;2023-05-29T12:06:31;102582.16;;;20.92
18161;BMP280;9205;52.032;4.314;2023-05-29T12:09:01;102606.03;;;20.98
18161;BMP280;9205;52.032;4.314;2023-05-29T12:11:30;102601.91;;;21.16
18161;BMP280;9205;52.032;4.314;2023-05-29T12:13:57;102597.06;;;21.29
18161;BMP280;9205;52.032;4.314;2023-05-29T12:16:26;102588.53;;;21.27
18161;BMP280;9205;52.032;4.314;2023-05-29T12:18:54;102580.09;;;21.23
18161;BMP280;9205;52.032;4.314;2023-05-29T12:21:22;102579.47;;;21.39
18161;BMP280;9205;52.032;4.314;2023-05-29T12:23:52;102583.88;;;21.58
18161;BMP280;9205;52.032;4.314;2023-05-29T12:26:23;102587.91;;;21.65
18161;BMP280;9205;52.032;4.314;2023-05-29T12:28:51;102579.88;;;21.50
18161;BMP280;9205;52.032;4.314;2023-05-29T12:31:30;102571.50;;;21.43
18161;BMP280;9205;52.032;4.314;2023-05-29T12:34:02;102569.31;;;21.34
18161;BMP280;9205;52.032;4.314;2023-05-29T12:36:29;102586.56;;;21.11
18161;BMP280;9205;52.032;4.314;2023-05-29T12:38:58;102588.66;;;21.02
18161;BMP280;9205;52.032;4.314;2023-05-29T12:41:30;102581.16;;;20.96
18161;BMP280;9205;52.032;4.314;2023-05-29T12:44:03;102578.50;;;20.97
18161;BMP280;9205;52.032;4.314;2023-05-29T12:46:37;102584.78;;;21.13
18161;BMP280;9205;52.032;4.314;2023-05-29T12:49:12;102573.19;;;21.23
18161;BMP280;9205;52.032;4.314;2023-05-29T12:51:41;102587.31;;;21.15
18161;BMP280;9205;52.032;4.314;2023-05-29T12:54:10;102591.31;;;21.00
18161;BMP280;9205;52.032;4.314;2023-05-29T12:56:39;102587.94;;;20.74
18161;BMP280;9205;52.032;4.314;2023-05-29T12:59:06;102587.34;;;20.67
18161;BMP280;9205;52.032;4.314;2023-05-29T13:01:35;102587.13;;;20.73
18161;BMP280;9205;52.032;4.314;2023-05-29T13:04:03;102591.31;;;20.77
18161;BMP280;9205;52.032;4.314;2023-05-29T13:06:32;102594.19;;;20.93
18161;BMP280;9205;52.032;4.314;2023-05-29T13:08:59;102582.38;;;20.86
18161;BMP280;9205;52.032;4.314;2023-05-29T13:11:27;102595.38;;;20.84
18161;BMP280;9205;52.032;4.314;2023-05-29T13:13:55;102596.75;;;20.93
18161;BMP280;9205;52.032;4.314;2023-05-29T13:16:23;102603.94;;;21.08
18161;BMP280;9205;52.032;4.314;2023-05-29T13:18:50;102603.34;;;21.23
18161;BMP280;9205;52.032;4.314;2023-05-29T13:21:17;102604.09;;;21.26
18161;BMP280;9205;52.032;4.314;2023-05-29T13:23:44;102610.66;;;21.34
18161;BMP280;9205;52.032;4.314;2023-05-29T13:26:11;102599.59;;;21.31
18161;BMP280;9205;52.032;4.314;2023-05-29T13:28:39;102599.06;;;21.23
18161;BMP280;9205;52.032;4.314;2023-05-29T13:31:07;102612.56;;;21.29
18161;BMP280;9205;52.032;4.314;2023-05-29T13:33:35;102600.38;;;21.33
18161;BMP280;9205;52.032;4.314;2023-05-29T13:36:02;102593.31;;;21.36
18161;BMP280;9205;52.032;4.314;2023-05-29T13:38:30;102601.88;;;21.38
18161;BMP280;9205;52.032;4.314;2023-05-29T13:40:57;102595.25;;;21.54
18161;BMP280;9205;52.032;4.314;2023-05-29T13:43:24;102601.56;;;21.69
18161;BMP280;9205;52.032;4.314;2023-05-29T13:45:52;102589.31;;;21.51
18161;BMP280;9205;52.032;4.314;2023-05-29T13:48:20;102593.31;;;21.36
18161;BMP280;9205;52.032;4.314;2023-05-29T13:50:47;102603.47;;;21.42
18161;BMP280;9205;52.032;4.314;2023-05-29T13:53:15;102589.25;;;21.52
18161;BMP280;9205;52.032;4.314;2023-05-29T13:55:42;102597.88;;;21.53
18161;BMP280;9205;52.032;4.314;2023-05-29T13:58:09;102595.28;;;21.53
18161;BMP280;9205;52.032;4.314;2023-05-29T14:00:36;102597.09;;;21.72
18161;BMP280;9205;52.032;4.314;2023-05-29T14:03:04;102594.88;;;21.85
18161;BMP280;9205;52.032;4.314;2023-05-29T14:05:32;102580.78;;;21.92
18161;BMP280;9205;52.032;4.314;2023-05-29T14:07:59;102589.63;;;21.86
18161;BMP280;9205;52.032;4.314;2023-05-29T14:10:27;102578.31;;;21.67
18161;BMP280;9205;52.032;4.314;2023-05-29T14:12:54;102593.56;;;21.75
18161;BMP280;9205;52.032;4.314;2023-05-29T14:15:21;102588.03;;;21.82
18161;BMP280;9205;52.032;4.314;2023-05-29T14:17:48;102596.59;;;21.84
18161;BMP280;9205;52.032;4.314;2023-05-29T14:20:15;102589.16;;;21.77
18161;BMP280;9205;52.032;4.314;2023-05-29T14:22:44;102590.78;;;21.79